sensor_id;sensor_type;location;lat;lon;timestamp;P1;durP1;ratioP1;P2;durP2;ratioP2
65982;SDS011;52740;40.620;-8.640;2022-09-09T00:00:23;48.78;;;45.03;;
65982;SDS011;52740;40.620;-8.640;2022-09-09T00:02:27;46.05;;;42.70;;
65982;SDS011;52740;40.620;-8.640;2022-09-09T00:04:33;42.60;;;39.63;;
65982;SDS011;52740;40.620;-8.640;2022-09-09T00:06:43;46.10;;;40.92;;
65982;SDS011;52740;40.620;-8.640;2022-09-09T00:11:01;38.55;;;35.88;;
65982;SDS011;52740;40.620;-8.640;2022-09-09T00:13:09;37.88;;;35.50;;
65982;SDS011;52740;40.620;-8.640;2022-09-09T00:19:47;36.70;;;34.38;;
65982;SDS011;52740;40.620;-8.640;2022-09-09T00:22:00;34.00;;;32.10;;
65982;SDS011;52740;40.620;-8.640;2022-09-09T00:24:38;28.42;;;26.77;;
65982;SDS011;52740;40.620;-8.640;2022-09-09T00:26:43;30.08;;;27.92;;
65982;SDS011;52740;40.620;-8.640;2022-09-09T00:31:01;36.35;;;34.28;;
65982;SDS011;52740;40.620;-8.640;2022-09-09T00:33:12;37.08;;;34.70;;
65982;SDS011;52740;40.620;-8.640;2022-09-09T00:35:21;41.78;;;39.22;;
65982;SDS011;52740;40.620;-8.640;2022-09-09T00:37:25;39.13;;;36.65;;
65982;SDS011;52740;40.620;-8.640;2022-09-09T00:39:36;40.10;;;37.55;;
65982;SDS011;52740;40.620;-8.640;2022-09-09T00:43:57;43.80;;;41.45;;
65982;SDS011;52740;40.620;-8.640;2022-09-09T00:51:02;34.38;;;32.30;;
65982;SDS011;52740;40.620;-8.640;2022-09-09T00:53:39;34.13;;;31.98;;
65982;SDS011;52740;40.620;-8.640;2022-09-09T00:55:54;32.40;;;30.40;;
65982;SDS011;52740;40.620;-8.640;2022-09-09T00:58:14;25.48;;;24.00;;
65982;SDS011;52740;40.620;-8.640;2022-09-09T01:04:36;27.35;;;25.50;;
65982;SDS011;52740;40.620;-8.640;2022-09-09T01:06:37;23.90;;;22.52;;
65982;SDS011;52740;40.620;-8.640;2022-09-09T01:10:52;18.25;;;17.02;;
65982;SDS011;52740;40.620;-8.640;2022-09-09T01:12:58;20.50;;;19.25;;
65982;SDS011;52740;40.620;-8.640;2022-09-09T01:15:12;13.63;;;12.70;;
65982;SDS011;52740;40.620;-8.640;2022-09-09T01:17:33;15.40;;;13.02;;
65982;SDS011;52740;40.620;-8.640;2022-09-09T01:26:55;12.15;;;11.05;;
65982;SDS011;52740;40.620;-8.640;2022-09-09T01:29:00;12.00;;;10.82;;
65982;SDS011;52740;40.620;-8.640;2022-09-09T01:31:09;11.98;;;10.75;;
65982;SDS011;52740;40.620;-8.640;2022-09-09T01:33:18;12.73;;;11.27;;
65982;SDS011;52740;40.620;-8.640;2022-09-09T01:37:31;21.42;;;12.52;;
65982;SDS011;52740;40.620;-8.640;2022-09-09T01:39:32;13.57;;;11.23;;
65982;SDS011;52740;40.620;-8.640;2022-09-09T01:41:38;14.25;;;13.07;;
65982;SDS011;52740;40.620;-8.640;2022-09-09T01:43:42;13.98;;;12.43;;
65982;SDS011;52740;40.620;-8.640;2022-09-09T01:45:44;15.68;;;14.43;;
65982;SDS011;52740;40.620;-8.640;2022-09-09T01:47:48;12.18;;;10.93;;
65982;SDS011;52740;40.620;-8.640;2022-09-09T01:49:53;15.25;;;13.85;;
65982;SDS011;52740;40.620;-8.640;2022-09-09T01:51:58;14.90;;;13.90;;
65982;SDS011;52740;40.620;-8.640;2022-09-09T01:54:07;14.07;;;12.80;;
65982;SDS011;52740;40.620;-8.640;2022-09-09T02:01:06;13.77;;;12.68;;
65982;SDS011;52740;40.620;-8.640;2022-09-09T02:03:20;12.23;;;10.27;;
65982;SDS011;52740;40.620;-8.640;2022-09-09T02:05:37;16.55;;;10.75;;
65982;SDS011;52740;40.620;-8.640;2022-09-09T02:07:56;12.32;;;10.30;;
65982;SDS011;52740;40.620;-8.640;2022-09-09T02:12:53;12.65;;;11.45;;
65982;SDS011;52740;40.620;-8.640;2022-09-09T02:15:04;12.07;;;10.80;;
65982;SDS011;52740;40.620;-8.640;2022-09-09T02:17:26;11.60;;;10.80;;
65982;SDS011;52740;40.620;-8.640;2022-09-09T02:19:42;14.48;;;10.80;;
65982;SDS011;52740;40.620;-8.640;2022-09-09T02:22:06;16.67;;;12.90;;
65982;SDS011;52740;40.620;-8.640;2022-09-09T02:24:08;9.88;;;8.73;;
65982;SDS011;52740;40.620;-8.640;2022-09-09T02:26:15;10.98;;;9.98;;
65982;SDS011;52740;40.620;-8.640;2022-09-09T02:28:22;11.45;;;10.18;;
65982;SDS011;52740;40.620;-8.640;2022-09-09T02:32:32;10.13;;;8.55;;
65982;SDS011;52740;40.620;-8.640;2022-09-09T02:34:37;9.73;;;8.93;;
65982;SDS011;52740;40.620;-8.640;2022-09-09T02:36:43;10.50;;;9.50;;
65982;SDS011;52740;40.620;-8.640;2022-09-09T02:38:47;10.98;;;8.55;;
65982;SDS011;52740;40.620;-8.640;2022-09-09T02:40:51;10.23;;;8.55;;
65982;SDS011;52740;40.620;-8.640;2022-09-09T02:42:53;11.15;;;10.25;;
65982;SDS011;52740;40.620;-8.640;2022-09-09T02:44:55;11.25;;;10.20;;
65982;SDS011;52740;40.620;-8.640;2022-09-09T02:51:27;12.10;;;10.63;;
65982;SDS011;52740;40.620;-8.640;2022-09-09T02:56:15;13.77;;;9.23;;
65982;SDS011;52740;40.620;-8.640;2022-09-09T02:58:21;11.90;;;9.70;;
65982;SDS011;52740;40.620;-8.640;2022-09-09T03:00:36;10.70;;;9.07;;
65982;SDS011;52740;40.620;-8.640;2022-09-09T03:02:37;12.57;;;10.00;;
65982;SDS011;52740;40.620;-8.640;2022-09-09T03:04:40;13.38;;;7.97;;
65982;SDS011;52740;40.620;-8.640;2022-09-09T03:06:44;17.77;;;9.32;;
65982;SDS011;52740;40.620;-8.640;2022-09-09T03:08:51;9.40;;;7.57;;
65982;SDS011;52740;40.620;-8.640;2022-09-09T03:10:58;10.75;;;9.65;;
65982;SDS011;52740;40.620;-8.640;2022-09-09T03:13:02;10.48;;;9.48;;
65982;SDS011;52740;40.620;-8.640;2022-09-09T03:15:08;14.57;;;8.70;;
65982;SDS011;52740;40.620;-8.640;2022-09-09T03:17:11;9.53;;;7.53;;
65982;SDS011;52740;40.620;-8.640;2022-09-09T03:19:19;8.25;;;7.45;;
65982;SDS011;52740;40.620;-8.640;2022-09-09T03:21:21;10.73;;;9.40;;
65982;SDS011;52740;40.620;-8.640;2022-09-09T03:23:23;8.93;;;8.18;;
65982;SDS011;52740;40.620;-8.640;2022-09-09T03:25:25;11.48;;;8.90;;
65982;SDS011;52740;40.620;-8.640;2022-09-09T03:27:27;8.98;;;8.13;;
65982;SDS011;52740;40.620;-8.640;2022-09-09T03:29:29;10.02;;;9.02;;
65982;SDS011;52740;40.620;-8.640;2022-09-09T03:31:32;10.30;;;9.40;;
65982;SDS011;52740;40.620;-8.640;2022-09-09T03:33:34;9.23;;;8.23;;
65982;SDS011;52740;40.620;-8.640;2022-09-09T03:35:37;9.40;;;8.25;;
65982;SDS011;52740;40.620;-8.640;2022-09-09T03:37:37;7.63;;;6.88;;
65982;SDS011;52740;40.620;-8.640;2022-09-09T03:39:39;8.85;;;8.00;;
65982;SDS011;52740;40.620;-8.640;2022-09-09T03:41:41;8.82;;;8.02;;
65982;SDS011;52740;40.620;-8.640;2022-09-09T03:43:41;7.70;;;7.00;;
65982;SDS011;52740;40.620;-8.640;2022-09-09T03:45:46;8.93;;;8.23;;
65982;SDS011;52740;40.620;-8.640;2022-09-09T03:47:48;9.10;;;8.18;;
65982;SDS011;52740;40.620;-8.640;2022-09-09T03:49:49;10.80;;;8.40;;
65982;SDS011;52740;40.620;-8.640;2022-09-09T03:51:50;8.23;;;7.53;;
65982;SDS011;52740;40.620;-8.640;2022-09-09T03:53:50;10.43;;;8.00;;
65982;SDS011;52740;40.620;-8.640;2022-09-09T03:55:52;10.00;;;8.68;;
65982;SDS011;52740;40.620;-8.640;2022-09-09T03:58:00;12.45;;;9.05;;
65982;SDS011;52740;40.620;-8.640;2022-09-09T04:00:06;9.30;;;8.40;;
65982;SDS011;52740;40.620;-8.640;2022-09-09T04:02:17;15.35;;;8.57;;
65982;SDS011;52740;40.620;-8.640;2022-09-09T04:04:18;9.18;;;8.25;;
65982;SDS011;52740;40.620;-8.640;2022-09-09T04:06:20;11.95;;;8.80;;
65982;SDS011;52740;40.620;-8.640;2022-09-09T04:08:22;10.20;;;9.13;;
65982;SDS011;52740;40.620;-8.640;2022-09-09T04:10:25;9.23;;;8.23;;
65982;SDS011;52740;40.620;-8.640;2022-09-09T04:12:28;12.25;;;9.60;;
65982;SDS011;52740;40.620;-8.640;2022-09-09T04:14:29;15.40;;;10.88;;
65982;SDS011;52740;40.620;-8.640;2022-09-09T04:16:32;14.95;;;13.60;;
65982;SDS011;52740;40.620;-8.640;2022-09-09T04:18:34;12.52;;;11.32;;
65982;SDS011;52740;40.620;-8.640;2022-09-09T04:20:35;13.38;;;12.00;;
65982;SDS011;52740;40.620;-8.640;2022-09-09T04:22:36;20.95;;;12.63;;
65982;SDS011;52740;40.620;-8.640;2022-09-09T04:24:39;14.40;;;12.90;;
65982;SDS011;52740;40.620;-8.640;2022-09-09T04:26:41;9.43;;;8.73;;
65982;SDS011;52740;40.620;-8.640;2022-09-09T04:28:42;12.45;;;9.38;;
65982;SDS011;52740;40.620;-8.640;2022-09-09T04:30:50;11.45;;;10.32;;
65982;SDS011;52740;40.620;-8.640;2022-09-09T04:32:51;12.10;;;10.90;;
65982;SDS011;52740;40.620;-8.640;2022-09-09T04:34:51;13.20;;;12.30;;
65982;SDS011;52740;40.620;-8.640;2022-09-09T04:36:52;13.13;;;12.18;;
65982;SDS011;52740;40.620;-8.640;2022-09-09T04:38:53;10.52;;;9.70;;
65982;SDS011;52740;40.620;-8.640;2022-09-09T04:40:53;10.02;;;9.32;;
65982;SDS011;52740;40.620;-8.640;2022-09-09T04:42:57;9.07;;;8.38;;
65982;SDS011;52740;40.620;-8.640;2022-09-09T04:44:58;9.30;;;8.50;;
65982;SDS011;52740;40.620;-8.640;2022-09-09T04:46:59;8.30;;;7.57;;
65982;SDS011;52740;40.620;-8.640;2022-09-09T04:49:00;9.55;;;8.90;;
65982;SDS011;52740;40.620;-8.640;2022-09-09T04:51:05;8.60;;;8.10;;
65982;SDS011;52740;40.620;-8.640;2022-09-09T04:53:08;9.15;;;8.50;;
65982;SDS011;52740;40.620;-8.640;2022-09-09T04:55:11;9.75;;;8.82;;
65982;SDS011;52740;40.620;-8.640;2022-09-09T04:57:14;8.73;;;8.02;;
65982;SDS011;52740;40.620;-8.640;2022-09-09T04:59:15;9.85;;;9.23;;
65982;SDS011;52740;40.620;-8.640;2022-09-09T05:01:20;11.20;;;10.32;;
65982;SDS011;52740;40.620;-8.640;2022-09-09T05:03:23;9.85;;;9.25;;
65982;SDS011;52740;40.620;-8.640;2022-09-09T05:05:24;8.75;;;8.00;;
65982;SDS011;52740;40.620;-8.640;2022-09-09T05:07:26;9.90;;;9.05;;
65982;SDS011;52740;40.620;-8.640;2022-09-09T05:09:27;9.75;;;8.75;;
65982;SDS011;52740;40.620;-8.640;2022-09-09T05:11:29;11.70;;;10.45;;
65982;SDS011;52740;40.620;-8.640;2022-09-09T05:13:41;11.23;;;10.07;;
65982;SDS011;52740;40.620;-8.640;2022-09-09T05:15:41;10.90;;;10.02;;
65982;SDS011;52740;40.620;-8.640;2022-09-09T05:17:43;14.60;;;12.80;;
65982;SDS011;52740;40.620;-8.640;2022-09-09T05:19:44;14.73;;;13.52;;
65982;SDS011;52740;40.620;-8.640;2022-09-09T05:21:44;15.80;;;14.43;;
65982;SDS011;52740;40.620;-8.640;2022-09-09T05:23:47;15.50;;;13.95;;
65982;SDS011;52740;40.620;-8.640;2022-09-09T05:25:57;17.95;;;16.30;;
65982;SDS011;52740;40.620;-8.640;2022-09-09T05:27:59;16.98;;;15.73;;
65982;SDS011;52740;40.620;-8.640;2022-09-09T05:30:01;18.92;;;17.30;;
65982;SDS011;52740;40.620;-8.640;2022-09-09T05:32:02;20.48;;;18.65;;
65982;SDS011;52740;40.620;-8.640;2022-09-09T05:34:04;24.40;;;22.38;;
65982;SDS011;52740;40.620;-8.640;2022-09-09T05:36:06;21.63;;;19.92;;
65982;SDS011;52740;40.620;-8.640;2022-09-09T05:38:08;23.83;;;21.83;;
65982;SDS011;52740;40.620;-8.640;2022-09-09T05:40:09;21.60;;;19.63;;
65982;SDS011;52740;40.620;-8.640;2022-09-09T05:42:11;26.15;;;24.00;;
65982;SDS011;52740;40.620;-8.640;2022-09-09T05:44:12;23.25;;;20.90;;
65982;SDS011;52740;40.620;-8.640;2022-09-09T05:46:17;27.80;;;25.02;;
65982;SDS011;52740;40.620;-8.640;2022-09-09T05:48:27;29.73;;;25.85;;
65982;SDS011;52740;40.620;-8.640;2022-09-09T05:50:28;27.92;;;21.00;;
65982;SDS011;52740;40.620;-8.640;2022-09-09T05:52:29;26.40;;;23.73;;
65982;SDS011;52740;40.620;-8.640;2022-09-09T05:54:32;27.65;;;24.23;;
65982;SDS011;52740;40.620;-8.640;2022-09-09T05:56:33;28.52;;;23.38;;
65982;SDS011;52740;40.620;-8.640;2022-09-09T05:58:34;27.90;;;22.83;;
65982;SDS011;52740;40.620;-8.640;2022-09-09T06:00:37;27.77;;;25.30;;
65982;SDS011;52740;40.620;-8.640;2022-09-09T06:02:38;27.83;;;21.65;;
65982;SDS011;52740;40.620;-8.640;2022-09-09T06:04:39;24.80;;;21.02;;
65982;SDS011;52740;40.620;-8.640;2022-09-09T06:06:40;26.33;;;23.60;;
65982;SDS011;52740;40.620;-8.640;2022-09-09T06:08:53;22.33;;;19.98;;
65982;SDS011;52740;40.620;-8.640;2022-09-09T06:11:02;21.92;;;19.58;;
65982;SDS011;52740;40.620;-8.640;2022-09-09T06:13:04;27.30;;;18.38;;
65982;SDS011;52740;40.620;-8.640;2022-09-09T06:15:05;21.38;;;19.20;;
65982;SDS011;52740;40.620;-8.640;2022-09-09T06:17:07;24.73;;;20.15;;
65982;SDS011;52740;40.620;-8.640;2022-09-09T06:19:08;26.45;;;18.55;;
65982;SDS011;52740;40.620;-8.640;2022-09-09T06:21:09;29.17;;;20.20;;
65982;SDS011;52740;40.620;-8.640;2022-09-09T06:23:15;20.73;;;18.00;;
65982;SDS011;52740;40.620;-8.640;2022-09-09T06:25:16;23.80;;;20.38;;
65982;SDS011;52740;40.620;-8.640;2022-09-09T06:30:10;28.65;;;17.23;;
65982;SDS011;52740;40.620;-8.640;2022-09-09T06:32:14;20.63;;;17.27;;
65982;SDS011;52740;40.620;-8.640;2022-09-09T06:34:15;27.67;;;18.92;;
65982;SDS011;52740;40.620;-8.640;2022-09-09T06:36:21;32.55;;;24.77;;
65982;SDS011;52740;40.620;-8.640;2022-09-09T06:38:24;32.95;;;19.05;;
65982;SDS011;52740;40.620;-8.640;2022-09-09T06:40:25;41.72;;;22.10;;
65982;SDS011;52740;40.620;-8.640;2022-09-09T06:42:27;38.13;;;22.05;;
65982;SDS011;52740;40.620;-8.640;2022-09-09T06:44:39;39.65;;;21.45;;
65982;SDS011;52740;40.620;-8.640;2022-09-09T06:46:44;39.72;;;21.33;;
65982;SDS011;52740;40.620;-8.640;2022-09-09T06:48:49;39.08;;;19.13;;
65982;SDS011;52740;40.620;-8.640;2022-09-09T06:50:51;40.38;;;19.83;;
65982;SDS011;52740;40.620;-8.640;2022-09-09T06:53:02;47.70;;;22.13;;
65982;SDS011;52740;40.620;-8.640;2022-09-09T06:55:03;41.45;;;20.10;;
65982;SDS011;52740;40.620;-8.640;2022-09-09T06:57:05;33.15;;;21.13;;
65982;SDS011;52740;40.620;-8.640;2022-09-09T06:59:08;35.05;;;20.13;;
65982;SDS011;52740;40.620;-8.640;2022-09-09T07:01:12;45.60;;;19.77;;
65982;SDS011;52740;40.620;-8.640;2022-09-09T07:03:15;29.65;;;18.92;;
65982;SDS011;52740;40.620;-8.640;2022-09-09T07:05:16;28.60;;;18.45;;
65982;SDS011;52740;40.620;-8.640;2022-09-09T07:07:19;33.38;;;18.90;;
65982;SDS011;52740;40.620;-8.640;2022-09-09T07:09:20;21.33;;;16.85;;
65982;SDS011;52740;40.620;-8.640;2022-09-09T07:11:24;31.73;;;21.33;;
65982;SDS011;52740;40.620;-8.640;2022-09-09T07:13:30;49.25;;;20.75;;
65982;SDS011;52740;40.620;-8.640;2022-09-09T07:15:31;33.17;;;21.92;;
65982;SDS011;52740;40.620;-8.640;2022-09-09T07:17:34;29.50;;;21.77;;
65982;SDS011;52740;40.620;-8.640;2022-09-09T07:19:35;28.85;;;19.58;;
65982;SDS011;52740;40.620;-8.640;2022-09-09T07:21:38;30.23;;;19.45;;
65982;SDS011;52740;40.620;-8.640;2022-09-09T07:23:41;22.95;;;18.48;;
65982;SDS011;52740;40.620;-8.640;2022-09-09T07:25:45;30.83;;;19.80;;
65982;SDS011;52740;40.620;-8.640;2022-09-09T07:27:47;24.13;;;21.25;;
65982;SDS011;52740;40.620;-8.640;2022-09-09T07:29:49;23.15;;;20.73;;
65982;SDS011;52740;40.620;-8.640;2022-09-09T07:31:50;25.73;;;23.10;;
65982;SDS011;52740;40.620;-8.640;2022-09-09T07:33:57;23.10;;;20.90;;
65982;SDS011;52740;40.620;-8.640;2022-09-09T07:36:06;23.92;;;21.48;;
65982;SDS011;52740;40.620;-8.640;2022-09-09T07:38:11;29.13;;;26.13;;
65982;SDS011;52740;40.620;-8.640;2022-09-09T07:40:12;28.83;;;24.73;;
65982;SDS011;52740;40.620;-8.640;2022-09-09T07:42:13;29.70;;;26.80;;
65982;SDS011;52740;40.620;-8.640;2022-09-09T07:44:16;30.58;;;27.40;;
65982;SDS011;52740;40.620;-8.640;2022-09-09T07:46:23;30.13;;;24.95;;
65982;SDS011;52740;40.620;-8.640;2022-09-09T07:48:25;28.35;;;25.63;;
65982;SDS011;52740;40.620;-8.640;2022-09-09T07:50:26;30.80;;;28.25;;
65982;SDS011;52740;40.620;-8.640;2022-09-09T07:52:27;30.23;;;27.05;;
65982;SDS011;52740;40.620;-8.640;2022-09-09T07:54:31;26.95;;;23.83;;
65982;SDS011;52740;40.620;-8.640;2022-09-09T07:56:33;37.10;;;28.67;;
65982;SDS011;52740;40.620;-8.640;2022-09-09T07:58:38;38.33;;;24.95;;
65982;SDS011;52740;40.620;-8.640;2022-09-09T08:00:40;29.40;;;26.30;;
65982;SDS011;52740;40.620;-8.640;2022-09-09T08:02:44;38.27;;;25.70;;
65982;SDS011;52740;40.620;-8.640;2022-09-09T08:04:46;30.92;;;26.73;;
65982;SDS011;52740;40.620;-8.640;2022-09-09T08:06:55;35.50;;;28.50;;
65982;SDS011;52740;40.620;-8.640;2022-09-09T08:08:59;33.03;;;28.35;;
65982;SDS011;52740;40.620;-8.640;2022-09-09T08:11:05;37.50;;;26.25;;
65982;SDS011;52740;40.620;-8.640;2022-09-09T08:13:16;28.63;;;25.73;;
65982;SDS011;52740;40.620;-8.640;2022-09-09T08:15:19;27.88;;;23.17;;
65982;SDS011;52740;40.620;-8.640;2022-09-09T08:17:19;26.85;;;22.08;;
65982;SDS011;52740;40.620;-8.640;2022-09-09T08:19:21;30.15;;;19.65;;
65982;SDS011;52740;40.620;-8.640;2022-09-09T08:21:23;24.77;;;19.35;;
65982;SDS011;52740;40.620;-8.640;2022-09-09T08:23:29;17.23;;;15.43;;
65982;SDS011;52740;40.620;-8.640;2022-09-09T08:25:29;24.33;;;15.60;;
65982;SDS011;52740;40.620;-8.640;2022-09-09T08:27:30;19.20;;;16.60;;
65982;SDS011;52740;40.620;-8.640;2022-09-09T08:29:32;24.00;;;18.88;;
65982;SDS011;52740;40.620;-8.640;2022-09-09T08:31:34;24.02;;;20.70;;
65982;SDS011;52740;40.620;-8.640;2022-09-09T08:33:39;21.75;;;17.60;;
65982;SDS011;52740;40.620;-8.640;2022-09-09T08:35:49;20.33;;;17.77;;
65982;SDS011;52740;40.620;-8.640;2022-09-09T08:37:53;17.98;;;14.68;;
65982;SDS011;52740;40.620;-8.640;2022-09-09T08:39:54;16.67;;;15.00;;
65982;SDS011;52740;40.620;-8.640;2022-09-09T08:44:07;13.73;;;11.95;;
65982;SDS011;52740;40.620;-8.640;2022-09-09T08:46:26;12.57;;;11.32;;
65982;SDS011;52740;40.620;-8.640;2022-09-09T08:50:43;14.23;;;13.15;;
65982;SDS011;52740;40.620;-8.640;2022-09-09T08:52:54;15.20;;;14.00;;
65982;SDS011;52740;40.620;-8.640;2022-09-09T08:55:24;16.23;;;12.80;;
65982;SDS011;52740;40.620;-8.640;2022-09-09T08:57:28;14.13;;;12.88;;
65982;SDS011;52740;40.620;-8.640;2022-09-09T08:59:31;12.40;;;11.35;;
65982;SDS011;52740;40.620;-8.640;2022-09-09T09:01:39;13.52;;;11.75;;
65982;SDS011;52740;40.620;-8.640;2022-09-09T09:10:53;11.98;;;9.05;;
65982;SDS011;52740;40.620;-8.640;2022-09-09T09:12:59;11.68;;;8.23;;
65982;SDS011;52740;40.620;-8.640;2022-09-09T09:15:02;10.68;;;9.82;;
65982;SDS011;52740;40.620;-8.640;2022-09-09T09:17:21;11.60;;;10.45;;
65982;SDS011;52740;40.620;-8.640;2022-09-09T09:19:26;12.80;;;11.57;;
65982;SDS011;52740;40.620;-8.640;2022-09-09T09:24:16;14.20;;;11.50;;
65982;SDS011;52740;40.620;-8.640;2022-09-09T09:26:18;11.15;;;10.15;;
65982;SDS011;52740;40.620;-8.640;2022-09-09T09:28:26;12.68;;;11.68;;
65982;SDS011;52740;40.620;-8.640;2022-09-09T09:30:40;13.30;;;12.07;;
65982;SDS011;52740;40.620;-8.640;2022-09-09T09:34:56;11.65;;;10.85;;
65982;SDS011;52740;40.620;-8.640;2022-09-09T09:37:00;12.85;;;11.85;;
65982;SDS011;52740;40.620;-8.640;2022-09-09T09:39:07;13.57;;;12.35;;
65982;SDS011;52740;40.620;-8.640;2022-09-09T09:41:14;13.77;;;12.57;;
65982;SDS011;52740;40.620;-8.640;2022-09-09T09:43:18;17.60;;;16.60;;
65982;SDS011;52740;40.620;-8.640;2022-09-09T09:47:35;19.38;;;17.98;;
65982;SDS011;52740;40.620;-8.640;2022-09-09T09:49:53;17.58;;;16.20;;
65982;SDS011;52740;40.620;-8.640;2022-09-09T09:52:12;16.83;;;15.40;;
65982;SDS011;52740;40.620;-8.640;2022-09-09T09:54:22;17.95;;;16.55;;
65982;SDS011;52740;40.620;-8.640;2022-09-09T09:56:32;17.25;;;15.95;;
65982;SDS011;52740;40.620;-8.640;2022-09-09T10:00:52;16.85;;;13.88;;
65982;SDS011;52740;40.620;-8.640;2022-09-09T10:02:57;16.90;;;15.45;;
65982;SDS011;52740;40.620;-8.640;2022-09-09T10:05:08;17.40;;;15.70;;
65982;SDS011;52740;40.620;-8.640;2022-09-09T10:07:23;14.65;;;12.80;;
65982;SDS011;52740;40.620;-8.640;2022-09-09T10:09:28;19.38;;;17.83;;
65982;SDS011;52740;40.620;-8.640;2022-09-09T10:28:18;22.20;;;18.95;;
65982;SDS011;52740;40.620;-8.640;2022-09-09T10:37:52;24.13;;;21.92;;
65982;SDS011;52740;40.620;-8.640;2022-09-09T10:40:12;28.00;;;25.08;;
65982;SDS011;52740;40.620;-8.640;2022-09-09T10:42:33;27.70;;;24.95;;
65982;SDS011;52740;40.620;-8.640;2022-09-09T10:47:05;28.20;;;25.45;;
65982;SDS011;52740;40.620;-8.640;2022-09-09T10:51:53;25.02;;;23.00;;
65982;SDS011;52740;40.620;-8.640;2022-09-09T10:54:31;21.92;;;20.20;;
65982;SDS011;52740;40.620;-8.640;2022-09-09T10:56:54;20.08;;;18.05;;
65982;SDS011;52740;40.620;-8.640;2022-09-09T11:01:10;22.05;;;20.05;;
65982;SDS011;52740;40.620;-8.640;2022-09-09T11:03:25;23.25;;;20.90;;
65982;SDS011;52740;40.620;-8.640;2022-09-09T11:05:42;23.70;;;21.77;;
65982;SDS011;52740;40.620;-8.640;2022-09-09T11:07:55;23.10;;;21.10;;
65982;SDS011;52740;40.620;-8.640;2022-09-09T11:10:02;23.85;;;19.52;;
65982;SDS011;52740;40.620;-8.640;2022-09-09T11:12:09;19.27;;;17.38;;
65982;SDS011;52740;40.620;-8.640;2022-09-09T11:16:49;18.05;;;14.18;;
65982;SDS011;52740;40.620;-8.640;2022-09-09T11:18:50;14.98;;;13.27;;
65982;SDS011;52740;40.620;-8.640;2022-09-09T11:21:02;19.90;;;18.23;;
65982;SDS011;52740;40.620;-8.640;2022-09-09T11:23:17;19.10;;;17.38;;
65982;SDS011;52740;40.620;-8.640;2022-09-09T11:25:25;23.35;;;21.50;;
65982;SDS011;52740;40.620;-8.640;2022-09-09T11:27:37;25.27;;;23.38;;
65982;SDS011;52740;40.620;-8.640;2022-09-09T11:37:13;31.98;;;29.83;;
65982;SDS011;52740;40.620;-8.640;2022-09-09T11:41:52;36.13;;;33.78;;
65982;SDS011;52740;40.620;-8.640;2022-09-09T11:43:54;39.00;;;36.17;;
65982;SDS011;52740;40.620;-8.640;2022-09-09T11:45:55;34.63;;;32.08;;
65982;SDS011;52740;40.620;-8.640;2022-09-09T11:47:59;26.80;;;24.65;;
65982;SDS011;52740;40.620;-8.640;2022-09-09T11:50:09;31.60;;;29.00;;
65982;SDS011;52740;40.620;-8.640;2022-09-09T11:52:37;30.55;;;28.48;;
65982;SDS011;52740;40.620;-8.640;2022-09-09T11:54:49;29.63;;;27.42;;
65982;SDS011;52740;40.620;-8.640;2022-09-09T11:56:50;25.75;;;23.55;;
65982;SDS011;52740;40.620;-8.640;2022-09-09T11:58:55;27.98;;;26.10;;
65982;SDS011;52740;40.620;-8.640;2022-09-09T12:05:44;38.42;;;35.83;;
65982;SDS011;52740;40.620;-8.640;2022-09-09T12:07:55;47.08;;;43.78;;
65982;SDS011;52740;40.620;-8.640;2022-09-09T12:10:01;43.17;;;40.22;;
65982;SDS011;52740;40.620;-8.640;2022-09-09T12:14:20;41.60;;;38.60;;
65982;SDS011;52740;40.620;-8.640;2022-09-09T12:16:33;41.55;;;38.72;;
65982;SDS011;52740;40.620;-8.640;2022-09-09T12:18:36;41.33;;;38.85;;
65982;SDS011;52740;40.620;-8.640;2022-09-09T12:22:55;44.70;;;41.88;;
65982;SDS011;52740;40.620;-8.640;2022-09-09T12:27:39;45.78;;;42.55;;
65982;SDS011;52740;40.620;-8.640;2022-09-09T12:30:02;43.05;;;40.15;;
65982;SDS011;52740;40.620;-8.640;2022-09-09T12:32:15;39.17;;;36.58;;
65982;SDS011;52740;40.620;-8.640;2022-09-09T12:36:36;50.53;;;47.05;;
65982;SDS011;52740;40.620;-8.640;2022-09-09T12:38:39;35.05;;;32.50;;
65982;SDS011;52740;40.620;-8.640;2022-09-09T12:40:42;21.70;;;19.48;;
65982;SDS011;52740;40.620;-8.640;2022-09-09T12:42:43;18.25;;;16.77;;
65982;SDS011;52740;40.620;-8.640;2022-09-09T12:44:52;25.30;;;23.48;;
65982;SDS011;52740;40.620;-8.640;2022-09-09T12:46:59;25.63;;;23.80;;
65982;SDS011;52740;40.620;-8.640;2022-09-09T12:49:03;30.95;;;28.42;;
65982;SDS011;52740;40.620;-8.640;2022-09-09T12:51:46;22.92;;;21.25;;
65982;SDS011;52740;40.620;-8.640;2022-09-09T12:55:37;22.75;;;20.75;;
65982;SDS011;52740;40.620;-8.640;2022-09-09T12:57:39;23.27;;;21.02;;
65982;SDS011;52740;40.620;-8.640;2022-09-09T12:59:41;21.55;;;19.67;;
65982;SDS011;52740;40.620;-8.640;2022-09-09T13:01:45;23.10;;;21.13;;
65982;SDS011;52740;40.620;-8.640;2022-09-09T13:03:56;30.20;;;28.00;;
65982;SDS011;52740;40.620;-8.640;2022-09-09T13:05:58;32.00;;;29.67;;
65982;SDS011;52740;40.620;-8.640;2022-09-09T13:08:11;25.90;;;23.70;;
65982;SDS011;52740;40.620;-8.640;2022-09-09T13:10:14;25.67;;;23.67;;
65982;SDS011;52740;40.620;-8.640;2022-09-09T13:12:22;24.20;;;21.95;;
65982;SDS011;52740;40.620;-8.640;2022-09-09T13:14:26;18.70;;;16.85;;
65982;SDS011;52740;40.620;-8.640;2022-09-09T13:16:33;20.27;;;18.40;;
65982;SDS011;52740;40.620;-8.640;2022-09-09T13:18:36;20.55;;;18.50;;
65982;SDS011;52740;40.620;-8.640;2022-09-09T13:20:45;24.58;;;22.23;;
65982;SDS011;52740;40.620;-8.640;2022-09-09T13:22:47;29.13;;;26.88;;
65982;SDS011;52740;40.620;-8.640;2022-09-09T13:25:04;26.70;;;24.80;;
65982;SDS011;52740;40.620;-8.640;2022-09-09T13:27:23;25.65;;;23.98;;
65982;SDS011;52740;40.620;-8.640;2022-09-09T13:29:28;24.05;;;20.92;;
65982;SDS011;52740;40.620;-8.640;2022-09-09T13:31:33;21.50;;;19.90;;
65982;SDS011;52740;40.620;-8.640;2022-09-09T13:33:37;23.42;;;21.60;;
65982;SDS011;52740;40.620;-8.640;2022-09-09T13:35:53;23.55;;;21.67;;
65982;SDS011;52740;40.620;-8.640;2022-09-09T13:37:56;22.17;;;20.50;;
65982;SDS011;52740;40.620;-8.640;2022-09-09T13:39:58;22.45;;;20.75;;
65982;SDS011;52740;40.620;-8.640;2022-09-09T13:41:59;22.17;;;20.58;;
65982;SDS011;52740;40.620;-8.640;2022-09-09T13:44:00;22.25;;;20.58;;
65982;SDS011;52740;40.620;-8.640;2022-09-09T13:46:03;22.25;;;20.55;;
65982;SDS011;52740;40.620;-8.640;2022-09-09T13:48:09;22.00;;;20.40;;
65982;SDS011;52740;40.620;-8.640;2022-09-09T13:50:21;22.95;;;21.15;;
65982;SDS011;52740;40.620;-8.640;2022-09-09T13:52:23;21.40;;;19.88;;
65982;SDS011;52740;40.620;-8.640;2022-09-09T13:54:27;22.08;;;20.30;;
65982;SDS011;52740;40.620;-8.640;2022-09-09T13:56:28;23.27;;;21.33;;
65982;SDS011;52740;40.620;-8.640;2022-09-09T13:58:29;23.42;;;21.63;;
65982;SDS011;52740;40.620;-8.640;2022-09-09T14:00:30;21.75;;;20.10;;
65982;SDS011;52740;40.620;-8.640;2022-09-09T14:02:32;22.02;;;20.08;;
65982;SDS011;52740;40.620;-8.640;2022-09-09T14:04:34;24.08;;;22.25;;
65982;SDS011;52740;40.620;-8.640;2022-09-09T14:06:35;27.58;;;25.48;;
65982;SDS011;52740;40.620;-8.640;2022-09-09T14:08:38;36.93;;;34.50;;
65982;SDS011;52740;40.620;-8.640;2022-09-09T14:10:40;34.53;;;32.15;;
65982;SDS011;52740;40.620;-8.640;2022-09-09T14:12:41;34.08;;;31.83;;
65982;SDS011;52740;40.620;-8.640;2022-09-09T14:14:41;33.85;;;31.05;;
65982;SDS011;52740;40.620;-8.640;2022-09-09T14:16:42;33.08;;;30.42;;
65982;SDS011;52740;40.620;-8.640;2022-09-09T14:18:44;31.20;;;29.10;;
65982;SDS011;52740;40.620;-8.640;2022-09-09T14:20:45;29.38;;;27.10;;